Time;durP1;ratioP1;P1;durP2;ratioP2;P2;SDS_P1;SDS_P2;PMS_P1;PMS_P2;Temp;Humidity;BMP_temperature;BMP_pressure;BME280_temperature;BME280_humidity;BME280_pressure;Samples;Min_cycle;Max_cycle;Signal;HPM_P1;HPM_P2
2022/03/17 00:01:49;;;;;;;28.35;22.67;;;11.80;99.90;;;;;;4876405;29;20132;-91
2022/03/17 00:04:15;;;;;;;28.25;23.35;;;11.80;99.90;;;;;;4878178;29;20041;-92
2022/03/17 00:06:41;;;;;;;29.13;23.40;;;11.80;99.90;;;;;;4878721;29;20448;-92
2022/03/17 00:09:07;;;;;;;32.28;24.85;;;11.80;99.90;;;;;;4864806;29;20049;-91
2022/03/17 00:11:35;;;;;;;27.58;23.23;;;11.80;99.90;;;;;;4864761;29;20048;-90
2022/03/17 00:14:01;;;;;;;29.98;24.20;;;11.80;99.90;;;;;;4880594;29;20118;-89
2022/03/17 00:16:28;;;;;;;28.25;24.45;;;11.80;99.90;;;;;;4865597;29;20036;-92
2022/03/17 00:18:55;;;;;;;28.50;23.80;;;11.70;99.90;;;;;;4866810;29;20101;-91
2022/03/17 00:21:22;;;;;;;28.40;24.88;;;11.70;99.90;;;;;;4876118;29;20037;-91
2022/03/17 00:23:48;;;;;;;30.23;24.42;;;11.70;99.90;;;;;;4910323;29;20029;-93
2022/03/17 00:26:14;;;;;;;28.73;23.70;;;11.70;99.90;;;;;;4896367;29;20033;-92
2022/03/17 00:28:40;;;;;;;31.67;26.10;;;11.70;99.90;;;;;;4886075;29;20136;-90
2022/03/17 00:31:05;;;;;;;31.08;25.02;;;11.70;99.90;;;;;;4886029;29;20021;-91
2022/03/17 00:33:31;;;;;;;27.92;24.10;;;11.70;99.90;;;;;;4902345;29;20045;-93
2022/03/17 00:35:57;;;;;;;30.20;26.10;;;11.60;99.90;;;;;;4901559;29;20017;-92
2022/03/17 00:38:22;;;;;;;30.92;25.23;;;11.60;99.90;;;;;;4902735;29;20037;-92
2022/03/17 00:40:48;;;;;;;27.65;23.77;;;11.70;99.90;;;;;;4902140;29;20041;-91
2022/03/17 00:43:16;;;;;;;30.05;25.52;;;11.70;99.90;;;;;;4884036;29;20088;-91
2022/03/17 00:45:47;;;;;;;31.52;25.45;;;11.70;99.90;;;;;;4900323;29;20047;-92
2022/03/17 00:48:13;;;;;;;29.73;24.88;;;11.70;99.90;;;;;;4898285;29;20033;-92
2022/03/17 00:50:38;;;;;;;30.20;25.63;;;11.70;99.90;;;;;;4851581;29;20038;-92
2022/03/17 00:53:04;;;;;;;30.15;25.42;;;11.70;99.90;;;;;;4869321;29;20059;-92
2022/03/17 00:55:30;;;;;;;30.83;25.52;;;11.60;99.90;;;;;;4883737;29;20120;-91
2022/03/17 00:57:56;;;;;;;30.65;25.15;;;11.60;99.90;;;;;;4864026;29;20033;-92
2022/03/17 01:00:23;;;;;;;32.78;26.48;;;11.60;99.90;;;;;;4845995;29;20037;-92
2022/03/17 01:02:53;;;;;;;28.98;24.90;;;11.60;99.90;;;;;;4859483;29;20423;-90
2022/03/17 01:05:21;;;;;;;30.08;24.85;;;11.50;99.90;;;;;;4867268;29;20049;-91
2022/03/17 01:07:47;;;;;;;30.30;24.98;;;11.60;99.90;;;;;;4884167;29;20102;-92
2022/03/17 01:10:16;;;;;;;30.95;25.35;;;11.50;99.90;;;;;;4879017;29;20057;-92
2022/03/17 01:12:44;;;;;;;29.60;25.33;;;11.50;99.90;;;;;;4877167;29;20045;-91
2022/03/17 01:15:10;;;;;;;31.33;25.75;;;11.40;99.90;;;;;;4875782;29;20052;-93
2022/03/17 01:17:35;;;;;;;30.33;25.15;;;11.40;99.90;;;;;;4880513;29;20037;-91
2022/03/17 01:20:01;;;;;;;30.08;25.83;;;11.50;99.90;;;;;;4872936;29;20096;-90
2022/03/17 01:22:27;;;;;;;31.35;25.77;;;11.50;99.90;;;;;;4887186;29;20077;-91
2022/03/17 01:24:52;;;;;;;27.95;23.20;;;11.40;99.90;;;;;;4867700;29;20441;-90
2022/03/17 01:27:23;;;;;;;29.10;23.80;;;11.40;99.90;;;;;;4865824;29;20040;-91
2022/03/17 01:29:50;;;;;;;31.08;23.55;;;11.40;99.90;;;;;;4882050;29;20036;-90
2022/03/17 01:32:18;;;;;;;29.55;23.33;;;11.40;99.90;;;;;;4883685;29;20400;-89
2022/03/17 01:34:44;;;;;;;31.80;25.05;;;11.40;99.90;;;;;;4864784;29;20072;-89
2022/03/17 01:37:10;;;;;;;27.33;22.50;;;11.40;99.90;;;;;;4864256;29;20488;-90
2022/03/17 01:39:36;;;;;;;26.77;22.17;;;11.40;99.90;;;;;;4880286;29;20052;-90
2022/03/17 01:42:04;;;;;;;30.05;24.38;;;11.40;99.90;;;;;;4880874;29;20051;-90
2022/03/17 01:44:30;;;;;;;28.38;22.17;;;11.40;99.90;;;;;;4881688;29;20033;-91
2022/03/17 01:49:41;;;;;;;27.67;21.73;;;11.50;99.90;;;;;;4883981;29;20113;-90
2022/03/17 01:52:07;;;;;;;27.92;22.27;;;11.60;99.90;;;;;;4883717;29;20037;-91
2022/03/17 01:54:34;;;;;;;25.95;20.92;;;11.60;99.90;;;;;;4867702;29;20037;-89
2022/03/17 01:57:00;;;;;;;27.08;21.45;;;11.70;99.90;;;;;;4884881;29;20293;-91
2022/03/17 01:59:31;;;;;;;25.90;20.50;;;11.80;99.90;;;;;;4884314;29;20515;-90
2022/03/17 02:01:57;;;;;;;29.27;21.88;;;11.80;99.90;;;;;;4887037;29;20037;-88
2022/03/17 02:04:24;;;;;;;28.10;21.00;;;11.80;99.90;;;;;;4887634;29;20041;-91
2022/03/17 02:06:50;;;;;;;23.27;20.23;;;11.90;99.90;;;;;;4886480;29;20045;-91
2022/03/17 02:09:18;;;;;;;27.73;21.75;;;11.90;99.90;;;;;;4885068;29;20048;-92
2022/03/17 02:14:28;;;;;;;29.00;22.90;;;11.90;99.90;;;;;;4883806;29;20052;-89
2022/03/17 02:16:53;;;;;;;26.67;21.20;;;12.00;99.90;;;;;;4882184;29;20488;-91
2022/03/17 02:19:22;;;;;;;29.13;22.98;;;12.00;99.90;;;;;;4883757;29;20373;-91
2022/03/17 02:21:49;;;;;;;28.60;21.60;;;12.00;99.90;;;;;;4884107;29;20037;-91
2022/03/17 02:27:01;;;;;;;25.45;20.27;;;12.00;99.90;;;;;;4883485;29;20056;-91
2022/03/17 02:29:29;;;;;;;27.83;21.83;;;12.00;99.90;;;;;;4882269;29;20033;-89
2022/03/17 02:31:55;;;;;;;27.00;21.73;;;12.00;99.90;;;;;;4882660;29;20128;-92
2022/03/17 02:34:20;;;;;;;25.00;21.27;;;12.00;99.90;;;;;;4882052;29;20516;-91
2022/03/17 02:36:51;;;;;;;28.73;22.40;;;12.00;99.90;;;;;;4882645;29;20447;-91
2022/03/17 02:39:21;;;;;;;27.25;22.27;;;12.10;99.90;;;;;;4866685;29;20037;-90
2022/03/17 02:41:47;;;;;;;28.35;22.15;;;12.00;99.90;;;;;;4882420;29;20037;-92
2022/03/17 02:44:12;;;;;;;29.70;23.25;;;12.00;99.90;;;;;;4882618;29;20522;-92
2022/03/17 02:46:38;;;;;;;28.00;22.27;;;12.00;99.90;;;;;;4882229;29;20453;-90
2022/03/17 02:49:06;;;;;;;29.48;23.30;;;12.00;99.90;;;;;;4884185;29;20044;-91
2022/03/17 02:51:31;;;;;;;31.70;22.45;;;12.10;99.90;;;;;;4884095;29;20033;-91
2022/03/17 02:53:58;;;;;;;29.52;22.45;;;12.00;99.90;;;;;;4883142;29;20041;-91
2022/03/17 02:56:24;;;;;;;29.10;21.92;;;12.00;99.90;;;;;;4884855;29;20628;-90
2022/03/17 02:58:51;;;;;;;29.15;22.48;;;12.00;99.90;;;;;;4884893;29;20033;-90
2022/03/17 03:01:16;;;;;;;28.48;22.00;;;12.00;99.90;;;;;;4887596;29;20085;-92
2022/03/17 03:03:42;;;;;;;28.08;20.77;;;12.00;99.90;;;;;;4887330;29;20044;-92
2022/03/17 03:06:07;;;;;;;28.73;21.92;;;12.00;99.90;;;;;;4885155;29;20128;-91
2022/03/17 03:08:34;;;;;;;30.27;23.15;;;12.00;99.90;;;;;;4882696;29;20056;-90
2022/03/17 03:11:00;;;;;;;27.42;21.85;;;11.90;99.90;;;;;;4881988;29;20029;-90
2022/03/17 03:13:26;;;;;;;30.40;23.40;;;11.90;99.90;;;;;;4889290;29;20041;-90
2022/03/17 03:15:51;;;;;;;29.83;22.83;;;11.90;99.90;;;;;;4887553;29;20396;-90
2022/03/17 03:18:18;;;;;;;29.42;23.00;;;11.90;99.90;;;;;;4885866;29;20033;-89
2022/03/17 03:20:44;;;;;;;28.38;22.02;;;11.90;99.90;;;;;;4884665;29;20041;-90
2022/03/17 03:23:10;;;;;;;30.95;22.83;;;11.90;99.90;;;;;;4885022;29;20128;-90
2022/03/17 03:25:36;;;;;;;29.67;22.73;;;11.90;99.90;;;;;;4883699;29;20070;-88
2022/03/17 03:28:09;;;;;;;30.00;23.05;;;11.70;99.90;;;;;;4881591;29;20037;-92
2022/03/17 03:30:36;;;;;;;34.13;24.70;;;11.60;99.90;;;;;;4881122;29;20037;-90
2022/03/17 03:33:03;;;;;;;29.17;21.60;;;11.50;99.90;;;;;;4881245;29;20064;-89
2022/03/17 03:38:13;;;;;;;28.65;22.17;;;11.20;99.90;;;;;;4882780;29;20059;-89
2022/03/17 03:40:39;;;;;;;34.30;25.23;;;11.10;99.90;;;;;;4880187;29;20029;-90
2022/03/17 03:43:04;;;;;;;39.05;27.42;;;11.10;99.90;;;;;;4885649;29;20088;-90
2022/03/17 03:45:31;;;;;;;40.90;27.35;;;11.00;99.90;;;;;;4885490;29;20040;-90
2022/03/17 03:47:57;;;;;;;35.10;24.33;;;10.90;99.90;;;;;;4885727;29;20029;-90
2022/03/17 03:50:23;;;;;;;31.33;23.88;;;10.90;99.90;;;;;;4886928;29;20044;-89
2022/03/17 03:52:50;;;;;;;30.77;23.17;;;10.80;99.90;;;;;;4883300;29;20041;-88
2022/03/17 03:55:15;;;;;;;29.75;22.67;;;10.80;99.90;;;;;;4885011;29;20040;-90
2022/03/17 03:57:46;;;;;;;23.33;19.15;;;10.70;99.90;;;;;;4889750;29;20048;-88
2022/03/17 04:00:32;;;;;;;23.75;18.17;;;10.60;99.90;;;;;;4889977;29;20037;-89
2022/03/17 04:02:58;;;;;;;20.85;16.45;;;10.60;99.90;;;;;;4886323;29;20068;-91
2022/03/17 04:05:34;;;;;;;18.30;15.18;;;10.60;99.90;;;;;;4888906;29;20036;-90
2022/03/17 04:08:00;;;;;;;14.90;12.90;;;10.60;99.90;;;;;;4885735;29;20040;-91
2022/03/17 04:10:27;;;;;;;12.80;10.75;;;10.60;99.90;;;;;;4886510;29;20077;-88
2022/03/17 04:12:53;;;;;;;12.40;9.68;;;10.60;99.90;;;;;;4882777;29;20045;-91
2022/03/17 04:15:18;;;;;;;9.27;7.28;;;10.50;99.90;;;;;;4882982;29;20111;-89
2022/03/17 04:17:44;;;;;;;7.55;5.45;;;10.50;99.90;;;;;;4887551;29;20120;-89
2022/03/17 04:20:10;;;;;;;7.75;5.00;;;10.30;99.90;;;;;;4871546;29;20068;-88
2022/03/17 04:22:37;;;;;;;7.43;4.53;;;10.30;99.90;;;;;;4882131;29;20516;-89
2022/03/17 04:25:03;;;;;;;7.90;4.85;;;10.20;99.90;;;;;;4882874;29;20037;-90
2022/03/17 04:27:29;;;;;;;6.88;4.57;;;10.10;99.90;;;;;;4879765;29;20061;-91
2022/03/17 04:29:55;;;;;;;7.18;4.47;;;10.10;99.90;;;;;;4879840;29;20041;-91
2022/03/17 04:32:21;;;;;;;6.63;4.40;;;10.10;99.90;;;;;;4879999;29;20471;-91
2022/03/17 04:34:47;;;;;;;6.57;3.70;;;10.10;99.90;;;;;;4879936;29;20081;-90
2022/03/17 04:37:14;;;;;;;5.32;3.42;;;10.10;99.90;;;;;;4881363;29;20071;-91
2022/03/17 04:39:39;;;;;;;6.15;3.45;;;10.10;99.90;;;;;;4880033;29;20456;-89
2022/03/17 04:42:05;;;;;;;7.03;3.60;;;10.00;99.90;;;;;;4880004;29;20120;-90
2022/03/17 04:44:31;;;;;;;7.10;3.88;;;10.10;99.90;;;;;;4879865;29;20033;-92
2022/03/17 04:46:57;;;;;;;5.15;3.67;;;10.00;99.90;;;;;;4879727;29;20041;-90
2022/03/17 04:49:23;;;;;;;5.80;3.42;;;10.00;99.90;;;;;;4879938;29;20046;-90
2022/03/17 04:51:48;;;;;;;6.53;3.70;;;9.90;99.90;;;;;;4879725;29;20033;-89
2022/03/17 04:54:14;;;;;;;6.05;4.28;;;9.90;99.90;;;;;;4879362;29;20068;-89
2022/03/17 04:56:40;;;;;;;7.82;5.00;;;9.90;99.90;;;;;;4879910;29;20128;-90
2022/03/17 04:59:05;;;;;;;6.80;4.40;;;9.80;99.90;;;;;;4879813;29;20061;-90
2022/03/17 05:01:31;;;;;;;6.72;5.13;;;9.80;99.90;;;;;;4879853;29;20044;-90
2022/03/17 05:03:56;;;;;;;8.45;5.22;;;9.70;99.90;;;;;;4880801;29;20037;-91
2022/03/17 05:06:22;;;;;;;10.43;6.00;;;9.70;99.90;;;;;;4879783;29;20102;-91
2022/03/17 05:08:48;;;;;;;6.70;4.72;;;9.70;99.90;;;;;;4879776;29;20059;-91
2022/03/17 05:11:14;;;;;;;7.97;6.20;;;9.70;99.90;;;;;;4879789;29;20026;-92
2022/03/17 05:13:40;;;;;;;9.52;5.88;;;9.60;99.90;;;;;;4879738;29;20041;-89
2022/03/17 05:16:07;;;;;;;6.97;4.97;;;9.70;99.90;;;;;;4881614;29;20033;-90
2022/03/17 05:18:33;;;;;;;10.23;6.28;;;9.60;99.90;;;;;;4883813;29;20048;-89
2022/03/17 05:20:59;;;;;;;8.52;6.15;;;9.70;99.90;;;;;;4883349;29;20116;-92
2022/03/17 05:23:26;;;;;;;10.20;7.15;;;9.60;99.90;;;;;;4879528;29;20515;-90
2022/03/17 05:25:52;;;;;;;9.57;7.97;;;9.60;99.90;;;;;;4879676;29;20452;-90
2022/03/17 05:28:18;;;;;;;12.98;8.88;;;9.60;99.90;;;;;;4880988;29;20041;-90
2022/03/17 05:30:45;;;;;;;15.30;8.65;;;9.60;99.90;;;;;;4879213;29;20098;-90
2022/03/17 05:33:11;;;;;;;14.40;7.90;;;9.50;99.90;;;;;;4878966;29;20047;-89
2022/03/17 05:35:38;;;;;;;13.18;7.95;;;9.40;99.90;;;;;;4879464;29;20044;-90
2022/03/17 05:38:04;;;;;;;12.80;6.25;;;9.40;99.90;;;;;;4880117;29;20085;-91
2022/03/17 05:40:32;;;;;;;10.63;5.88;;;9.50;99.90;;;;;;4880654;29;20029;-89
2022/03/17 05:43:02;;;;;;;12.10;4.68;;;9.40;99.90;;;;;;4881937;29;20099;-90
2022/03/17 05:45:29;;;;;;;10.13;4.72;;;9.40;99.90;;;;;;4883206;29;20085;-89
2022/03/17 05:48:00;;;;;;;11.52;5.15;;;9.30;99.90;;;;;;4866106;29;20455;-89
2022/03/17 05:50:41;;;;;;;11.82;4.22;;;9.30;99.90;;;;;;4882376;29;20033;-90
2022/03/17 05:53:07;;;;;;;10.48;4.15;;;9.40;99.90;;;;;;4882711;29;20049;-88
2022/03/17 05:55:33;;;;;;;13.50;4.25;;;9.40;99.90;;;;;;4880892;29;20043;-90
2022/03/17 05:58:00;;;;;;;10.95;3.88;;;9.30;99.90;;;;;;4897481;29;20033;-90
2022/03/17 06:00:27;;;;;;;11.57;4.00;;;9.30;99.90;;;;;;4881101;29;20492;-90
2022/03/17 06:02:54;;;;;;;12.75;4.13;;;9.30;99.90;;;;;;4879377;29;20040;-89
2022/03/17 06:05:20;;;;;;;12.05;4.10;;;9.20;99.90;;;;;;4881721;29;20041;-90
2022/03/17 06:07:48;;;;;;;10.60;3.78;;;9.20;99.90;;;;;;4881801;29;20051;-88
2022/03/17 06:10:21;;;;;;;11.55;3.42;;;9.20;99.90;;;;;;4881609;29;20052;-90
2022/03/17 06:12:48;;;;;;;;;;;9.20;99.90;;;;;;4883464;29;20132;-89
2022/03/17 06:15:14;;;;;;;10.52;3.40;;;9.10;99.90;;;;;;4881942;29;19954;-90
2022/03/17 06:17:45;;;;;;;12.25;3.35;;;9.10;99.90;;;;;;4881620;29;20037;-91
2022/03/17 06:20:15;;;;;;;7.30;2.42;;;9.10;99.90;;;;;;4882010;29;20075;-90
2022/03/17 06:22:43;;;;;;;9.18;2.53;;;9.00;99.90;;;;;;4881197;29;20483;-92
2022/03/17 06:25:16;;;;;;;9.73;2.33;;;9.00;99.90;;;;;;4881463;29;20120;-90
2022/03/17 06:27:43;;;;;;;9.48;2.60;;;9.10;99.90;;;;;;4881148;29;20088;-92
2022/03/17 06:30:12;;;;;;;7.93;2.45;;;9.10;99.90;;;;;;4882683;29;20041;-91
2022/03/17 06:32:39;;;;;;;10.00;2.60;;;9.10;99.90;;;;;;4865122;29;20506;-90
2022/03/17 06:35:07;;;;;;;9.45;3.00;;;9.10;99.90;;;;;;4871048;29;20038;-92
2022/03/17 06:37:33;;;;;;;11.35;2.72;;;9.00;99.90;;;;;;4873213;29;20045;-94
2022/03/17 06:39:58;;;;;;;8.20;2.30;;;9.00;99.90;;;;;;4863119;29;20036;-93
2022/03/17 06:42:24;;;;;;;9.00;2.13;;;8.90;99.90;;;;;;4880396;29;20044;-91
2022/03/17 06:44:50;;;;;;;8.23;1.90;;;9.00;99.90;;;;;;4872549;29;20130;-93
2022/03/17 06:47:15;;;;;;;6.50;1.95;;;8.90;99.90;;;;;;4864997;29;20135;-91
2022/03/17 06:49:41;;;;;;;6.80;1.75;;;8.90;99.90;;;;;;4879125;29;20447;-89
2022/03/17 06:52:07;;;;;;;8.60;1.83;;;9.00;99.90;;;;;;4882344;29;20388;-88
2022/03/17 06:54:32;;;;;;;6.28;1.50;;;9.00;99.90;;;;;;4881869;29;20049;-89
2022/03/17 06:56:59;;;;;;;8.13;2.10;;;9.00;99.90;;;;;;4882395;29;20041;-89
2022/03/17 06:59:26;;;;;;;7.85;1.77;;;9.10;99.90;;;;;;4881329;29;20129;-88
2022/03/17 07:01:51;;;;;;;5.63;1.70;;;9.10;99.90;;;;;;4881031;29;20033;-89
2022/03/17 07:04:17;;;;;;;6.70;2.47;;;9.10;99.90;;;;;;4880605;29;20048;-88
2022/03/17 07:06:43;;;;;;;5.90;2.05;;;9.10;99.90;;;;;;4881114;29;20037;-89
2022/03/17 07:09:08;;;;;;;6.78;1.70;;;9.10;99.90;;;;;;4881124;29;20057;-88
2022/03/17 07:11:34;;;;;;;6.65;1.63;;;9.10;99.90;;;;;;4867078;29;20518;-88
2022/03/17 07:14:00;;;;;;;6.95;1.58;;;9.10;99.90;;;;;;4864854;29;20128;-89
2022/03/17 07:16:25;;;;;;;9.15;1.95;;;9.10;99.90;;;;;;4889087;29;20515;-87
2022/03/17 07:18:51;;;;;;;10.98;2.30;;;9.10;99.90;;;;;;4895773;29;20036;-89
2022/03/17 07:21:16;;;;;;;8.55;2.10;;;9.10;99.90;;;;;;4882472;29;20034;-88
2022/03/17 07:23:42;;;;;;;8.57;1.80;;;9.10;99.90;;;;;;4880642;29;20037;-88
2022/03/17 07:26:08;;;;;;;9.25;1.88;;;9.10;99.90;;;;;;4881120;29;20029;-89
2022/03/17 07:28:34;;;;;;;9.85;2.97;;;9.10;99.90;;;;;;4882133;29;20064;-87
2022/03/17 07:30:59;;;;;;;10.68;2.63;;;9.10;99.90;;;;;;4883754;29;20033;-88
2022/03/17 07:33:25;;;;;;;10.55;3.13;;;9.10;99.90;;;;;;4883987;29;20463;-88
2022/03/17 07:35:50;;;;;;;7.85;2.60;;;9.10;99.90;;;;;;4882305;29;20064;-88
2022/03/17 07:38:16;;;;;;;12.82;2.97;;;9.00;99.90;;;;;;4881658;29;20045;-88
2022/03/17 07:40:42;;;;;;;11.57;2.70;;;9.00;99.90;;;;;;4885204;29;20457;-89
2022/03/17 07:43:08;;;;;;;12.57;3.03;;;9.10;99.90;;;;;;4876770;29;20041;-87
2022/03/17 07:45:34;;;;;;;7.40;1.90;;;9.10;99.90;;;;;;4890914;29;20040;-87
2022/03/17 07:48:00;;;;;;;10.50;2.10;;;9.10;99.90;;;;;;4891750;29;20515;-89
2022/03/17 07:50:26;;;;;;;10.00;1.67;;;9.10;99.90;;;;;;4887520;29;20040;-89
2022/03/17 07:52:51;;;;;;;7.75;1.67;;;9.00;99.90;;;;;;4895666;29;20043;-89
2022/03/17 07:55:18;;;;;;;12.45;2.05;;;9.00;99.90;;;;;;4902526;29;20044;-88
2022/03/17 07:57:45;;;;;;;10.93;1.77;;;9.00;99.90;;;;;;4903220;29;20021;-90
2022/03/17 08:00:14;;;;;;;9.60;1.25;;;9.00;99.90;;;;;;4887251;29;20028;-88
2022/03/17 08:02:41;;;;;;;11.07;1.95;;;8.90;99.90;;;;;;4896084;29;20036;-89
2022/03/17 08:05:07;;;;;;;9.68;2.33;;;8.90;99.90;;;;;;4892884;29;20044;-87
2022/03/17 08:07:33;;;;;;;12.68;2.60;;;8.90;99.90;;;;;;4901921;29;20089;-88
2022/03/17 08:09:58;;;;;;;11.85;2.13;;;8.80;99.90;;;;;;4902202;29;20041;-89
2022/03/17 08:12:26;;;;;;;10.23;1.65;;;8.80;99.90;;;;;;4902772;29;20035;-88
2022/03/17 08:14:53;;;;;;;7.97;1.98;;;8.80;99.90;;;;;;4902686;29;20049;-88
2022/03/17 08:17:19;;;;;;;9.27;2.38;;;8.80;99.90;;;;;;4902959;29;20021;-89
2022/03/17 08:19:44;;;;;;;11.75;2.03;;;8.90;99.90;;;;;;4900512;29;20037;-89
2022/03/17 08:22:10;;;;;;;9.02;1.95;;;9.00;99.90;;;;;;4884435;29;20025;-89
2022/03/17 08:24:36;;;;;;;10.50;1.60;;;8.90;99.90;;;;;;4886587;29;20066;-89
2022/03/17 08:27:02;;;;;;;6.70;1.50;;;9.00;99.90;;;;;;4891917;29;20092;-88
2022/03/17 08:29:29;;;;;;;8.98;1.88;;;9.00;99.90;;;;;;4892358;29;20036;-88
2022/03/17 08:31:55;;;;;;;8.35;1.50;;;9.10;99.90;;;;;;4884362;29;20058;-89
2022/03/17 08:34:20;;;;;;;8.05;1.77;;;9.00;99.90;;;;;;4885481;29;20045;-89
2022/03/17 08:36:46;;;;;;;10.40;1.60;;;9.10;99.90;;;;;;4864123;29;20041;-88
2022/03/17 08:39:13;;;;;;;12.32;1.90;;;9.10;99.90;;;;;;4863830;29;20068;-91
2022/03/17 08:41:39;;;;;;;6.80;1.27;;;9.20;99.90;;;;;;4863397;29;20029;-89
2022/03/17 08:44:05;;;;;;;7.15;1.30;;;9.30;99.90;;;;;;4879471;29;20493;-89
2022/03/17 08:49:22;;;;;;;9.02;1.45;;;9.40;99.90;;;;;;4884620;29;20060;-86
2022/03/17 08:51:53;;;;;;;11.40;1.38;;;9.50;99.90;;;;;;4884651;29;20441;-90
2022/03/17 08:54:22;;;;;;;11.20;1.42;;;9.60;99.90;;;;;;4883892;29;20041;-89
2022/03/17 08:56:48;;;;;;;6.53;1.10;;;9.70;99.90;;;;;;4877707;29;20029;-89
2022/03/17 08:59:14;;;;;;;7.88;1.38;;;9.70;99.90;;;;;;4872560;29;20036;-86
2022/03/17 09:01:40;;;;;;;7.45;1.25;;;9.70;99.90;;;;;;4868895;29;20033;-90
2022/03/17 09:04:06;;;;;;;8.93;1.50;;;9.70;99.90;;;;;;4878025;29;20033;-89
2022/03/17 09:06:31;;;;;;;8.13;1.10;;;9.80;99.90;;;;;;4881484;29;20051;-88
2022/03/17 09:08:57;;;;;;;9.90;1.85;;;9.80;99.90;;;;;;4880215;29;20503;-88
2022/03/17 09:11:23;;;;;;;10.88;2.42;;;9.90;99.90;;;;;;4881684;29;20037;-89
2022/03/17 09:13:49;;;;;;;9.43;1.35;;;9.90;99.90;;;;;;4865744;29;20045;-89
2022/03/17 09:16:16;;;;;;;13.93;1.75;;;9.90;99.90;;;;;;4861888;29;20124;-89
2022/03/17 09:18:42;;;;;;;8.45;1.25;;;9.90;99.90;;;;;;4870832;29;20032;-88
2022/03/17 09:21:11;;;;;;;7.35;1.40;;;9.90;99.90;;;;;;4880460;29;20132;-87
2022/03/17 09:23:37;;;;;;;9.10;1.65;;;9.80;99.90;;;;;;4867202;29;20094;-89
2022/03/17 09:26:03;;;;;;;9.43;1.50;;;9.90;99.90;;;;;;4876838;29;20037;-87
2022/03/17 09:28:28;;;;;;;8.05;1.60;;;9.90;99.90;;;;;;4865523;29;20037;-89
2022/03/17 09:30:55;;;;;;;9.00;1.83;;;10.00;99.90;;;;;;4879734;29;20096;-89
2022/03/17 09:33:25;;;;;;;10.13;1.90;;;10.00;99.90;;;;;;4868190;29;20037;-89
2022/03/17 09:36:01;;;;;;;11.75;1.90;;;10.10;99.90;;;;;;4860627;29;20063;-89
2022/03/17 09:38:27;;;;;;;9.93;2.13;;;10.10;99.90;;;;;;4861039;29;20041;-88
2022/03/17 09:40:52;;;;;;;6.63;1.42;;;10.20;99.90;;;;;;4865147;29;20093;-89
2022/03/17 09:43:19;;;;;;;10.30;1.45;;;10.20;99.90;;;;;;4865883;29;20030;-89
2022/03/17 09:45:46;;;;;;;7.63;1.75;;;10.20;99.90;;;;;;4865594;29;20038;-88
2022/03/17 09:48:16;;;;;;;8.57;1.30;;;10.20;99.90;;;;;;4870475;29;20033;-87
2022/03/17 09:50:42;;;;;;;7.97;1.90;;;10.20;99.90;;;;;;4884477;29;20037;-90
2022/03/17 09:53:09;;;;;;;10.07;1.70;;;10.30;99.90;;;;;;4882971;29;20029;-90
2022/03/17 09:55:35;;;;;;;5.30;1.17;;;10.30;99.90;;;;;;4869552;29;20050;-88
2022/03/17 09:58:03;;;;;;;11.52;1.98;;;10.30;99.90;;;;;;4864545;29;20029;-89
2022/03/17 10:00:48;;;;;;;6.68;1.50;;;10.40;99.90;;;;;;4865444;29;20076;-88
2022/03/17 10:03:16;;;;;;;6.00;1.35;;;10.50;99.90;;;;;;4864408;29;20057;-88
2022/03/17 10:05:44;;;;;;;6.65;1.60;;;10.60;99.90;;;;;;4864207;29;20038;-88
2022/03/17 10:08:10;;;;;;;11.38;1.92;;;10.60;99.90;;;;;;4864318;29;20476;-88
2022/03/17 10:10:39;;;;;;;6.32;1.55;;;10.60;99.90;;;;;;4870482;29;20049;-89
2022/03/17 10:13:14;;;;;;;7.45;2.00;;;10.60;99.90;;;;;;4873679;29;20076;-89
2022/03/17 10:15:41;;;;;;;6.35;1.33;;;10.60;99.90;;;;;;4861060;29;20131;-89
2022/03/17 10:18:24;;;;;;;9.90;2.20;;;10.60;99.90;;;;;;4883026;29;20128;-89
2022/03/17 10:21:13;;;;;;;4.97;1.40;;;10.70;99.90;;;;;;4871222;29;20052;-89
2022/03/17 10:23:48;;;;;;;9.70;1.50;;;10.80;99.90;;;;;;4863331;29;20129;-86
2022/03/17 10:26:39;;;;;;;7.43;1.42;;;10.90;99.90;;;;;;4876099;29;20063;-91
2022/03/17 10:29:15;;;;;;;6.70;1.42;;;11.10;99.90;;;;;;4870354;29;20033;-91
2022/03/17 10:32:01;;;;;;;7.20;1.48;;;11.20;99.90;;;;;;4883251;29;20480;-89
2022/03/17 10:34:30;;;;;;;7.82;1.42;;;11.10;99.90;;;;;;4876403;29;20430;-88
2022/03/17 10:37:07;;;;;;;5.68;1.40;;;11.20;99.90;;;;;;4867893;29;20124;-89
2022/03/17 10:39:47;;;;;;;6.70;1.30;;;11.40;99.90;;;;;;4868541;29;20408;-89
2022/03/17 10:42:23;;;;;;;6.78;1.30;;;11.60;99.90;;;;;;4863606;29;20044;-89
2022/03/17 10:44:51;;;;;;;8.13;1.70;;;11.70;99.90;;;;;;4848309;29;20049;-89
2022/03/17 10:47:29;;;;;;;5.50;1.50;;;11.70;99.90;;;;;;4874870;29;20037;-87
2022/03/17 10:50:02;;;;;;;8.23;1.40;;;11.70;99.90;;;;;;4881254;29;20048;-87
2022/03/17 10:52:52;;;;;;;5.72;1.27;;;11.70;99.90;;;;;;4864320;29;20488;-87
2022/03/17 10:55:32;;;;;;;6.35;1.50;;;11.90;99.90;;;;;;4862775;29;20496;-86
2022/03/17 10:58:19;;;;;;;7.60;1.80;;;12.10;99.90;;;;;;4862760;29;20034;-89
2022/03/17 11:00:58;;;;;;;6.53;1.73;;;12.20;99.90;;;;;;4870355;29;20111;-88
2022/03/17 11:03:24;;;;;;;6.47;1.67;;;12.20;99.90;;;;;;4882149;29;20059;-87
2022/03/17 11:05:51;;;;;;;7.55;1.88;;;12.40;99.90;;;;;;4864016;29;20484;-85
2022/03/17 11:08:18;;;;;;;7.38;1.92;;;12.60;99.90;;;;;;4880609;29;20169;-86
2022/03/17 11:10:44;;;;;;;6.85;1.73;;;12.70;99.90;;;;;;4879473;29;20040;-84
2022/03/17 11:13:11;;;;;;;7.78;2.00;;;12.80;99.90;;;;;;4879917;29;20049;-88
2022/03/17 11:15:45;;;;;;;5.78;1.58;;;12.90;99.90;;;;;;4880255;29;20802;-90
2022/03/17 11:18:15;;;;;;;5.53;1.65;;;12.80;99.90;;;;;;4866571;29;20033;-89
2022/03/17 11:20:41;;;;;;;7.60;2.08;;;12.80;99.90;;;;;;4879100;29;20129;-89
2022/03/17 11:23:20;;;;;;;6.97;1.70;;;13.00;99.90;;;;;;4871606;29;20132;-87
2022/03/17 11:25:57;;;;;;;7.05;1.70;;;13.10;99.90;;;;;;4865723;29;20048;-87
2022/03/17 11:28:41;;;;;;;7.47;1.85;;;13.10;99.90;;;;;;4880223;29;20049;-88
2022/03/17 11:31:09;;;;;;;7.50;1.77;;;13.30;99.90;;;;;;4879793;29;20097;-86
2022/03/17 11:33:44;;;;;;;5.07;0.98;;;13.50;99.90;;;;;;4866579;29;20048;-86
2022/03/17 11:36:10;;;;;;;6.40;1.13;;;13.50;99.90;;;;;;4878161;29;20093;-85
2022/03/17 11:38:37;;;;;;;6.80;1.40;;;13.80;99.90;;;;;;4883166;29;20060;-87
2022/03/17 11:41:09;;;;;;;7.00;1.60;;;13.90;99.90;;;;;;4880801;29;20037;-87
2022/03/17 11:43:47;;;;;;;5.70;1.42;;;14.00;99.90;;;;;;4881023;29;20068;-85
2022/03/17 11:46:18;;;;;;;4.57;1.80;;;14.40;99.90;;;;;;4882053;29;20369;-86
2022/03/17 11:48:46;;;;;;;6.25;1.50;;;14.60;99.90;;;;;;4872119;29;20487;-84
2022/03/17 11:51:15;;;;;;;4.40;1.38;;;14.70;99.90;;;;;;4881648;29;20033;-85
2022/03/17 11:53:49;;;;;;;6.20;1.60;;;14.80;99.90;;;;;;4898942;29;20116;-86
2022/03/17 11:56:37;;;;;;;6.13;1.88;;;14.80;99.90;;;;;;4864342;29;20029;-86
2022/03/17 11:59:07;;;;;;;6.68;1.50;;;14.80;99.90;;;;;;4863699;29;20496;-88
2022/03/17 12:01:35;;;;;;;4.85;1.40;;;15.10;99.90;;;;;;4874466;29;20061;-87
2022/03/17 12:04:03;;;;;;;5.28;1.40;;;15.20;99.90;;;;;;4880591;29;20048;-88
2022/03/17 12:06:38;;;;;;;3.95;1.20;;;15.40;99.90;;;;;;4881171;29;20037;-88
2022/03/17 12:09:07;;;;;;;4.25;1.40;;;15.60;99.90;;;;;;4872664;29;20061;-88
2022/03/17 12:11:46;;;;;;;5.45;1.30;;;15.80;99.90;;;;;;4874834;29;20036;-88
2022/03/17 12:14:16;;;;;;;3.42;1.20;;;16.10;99.90;;;;;;4863901;29;20052;-87
2022/03/17 12:16:51;;;;;;;4.70;1.33;;;16.10;99.90;;;;;;4882502;29;20033;-88
2022/03/17 12:19:29;;;;;;;4.20;1.20;;;16.00;99.90;;;;;;4899245;29;20056;-87
2022/03/17 12:22:16;;;;;;;5.95;2.05;;;15.60;99.90;;;;;;4896285;29;20432;-87
2022/03/17 12:24:45;;;;;;;3.78;1.40;;;15.70;99.90;;;;;;4875303;29;20049;-87
2022/03/17 12:27:22;;;;;;;3.83;1.13;;;16.00;99.90;;;;;;4869733;29;20107;-86
2022/03/17 12:30:03;;;;;;;6.38;1.17;;;16.20;99.90;;;;;;4897361;29;20041;-89
2022/03/17 12:32:31;;;;;;;3.22;0.90;;;16.60;99.90;;;;;;4860624;29;20463;-88
2022/03/17 12:34:59;;;;;;;3.53;1.00;;;16.70;99.30;;;;;;4862879;29;20099;-88
2022/03/17 12:37:28;;;;;;;7.25;1.30;;;17.00;99.30;;;;;;4857424;29;20037;-89
2022/03/17 12:39:55;;;;;;;4.80;0.90;;;17.40;99.20;;;;;;4881322;29;20330;-88
2022/03/17 12:42:27;;;;;;;5.30;1.20;;;18.30;97.60;;;;;;4881961;29;20112;-88
2022/03/17 12:44:59;;;;;;;4.47;1.05;;;19.30;96.00;;;;;;4876814;29;20185;-88
2022/03/17 12:47:28;;;;;;;6.35;1.20;;;20.10;95.90;;;;;;4871492;29;20029;-88
2022/03/17 12:49:56;;;;;;;5.25;1.35;;;20.80;93.30;;;;;;4880341;29;20135;-87
2022/03/17 12:52:25;;;;;;;4.85;1.35;;;21.00;92.60;;;;;;4870455;29;20051;-88
2022/03/17 12:54:55;;;;;;;4.88;1.30;;;21.20;92.00;;;;;;4875547;29;20040;-88
2022/03/17 12:57:23;;;;;;;4.38;1.08;;;21.70;91.10;;;;;;4880425;29;20072;-89
2022/03/17 12:59:49;;;;;;;4.53;1.45;;;22.00;89.60;;;;;;4876519;29;20538;-89
2022/03/17 13:02:17;;;;;;;5.43;1.50;;;22.10;86.90;;;;;;4879830;29;20068;-87